City of London, United Kingdom
Current Conditions -  °F | °C
As of 4:20 AM on Friday 19 Dec 2014 (Local Time) from EGLC Reporting Station
Rain Showers Rain Showers  
Wind Chill: 13°   Ceiling: 1800
Heat Index: 13°   Visibility: 6mi
Dew Point: 11°   Wind: 18mph
Humidity: 88%   Direction: 240°WSW
Pressure: 29.77"   Gusts: NA
Location:  51.51°N, 0.09°W
Report Text: EGLC 190420Z AUTO 24016KT 9999 -SHRA SCT012/// BKN018/// 13/11 Q1008 RERA
Loading
Personal Weather Stations






























Interactive Weather Map New forecast layout! Learn more

10-Day Weather Forecast

Advertisements
Track Severe Weather on mobile